Decoded Metar for LFLC (CLERMONT FERRAND in FRANCE) (IATA:CFE) | Meteo·Mobile Aviation Weather
aviador You're here:

LFLC Decoded Metar

CLERMONT FERRAND in FRANCE
Report Time2018-12-17 09:30:00
UTC Time2018-12-17 09:48:50
Flight Rules vfr VFR
WindVRB at 03 kt
Visibility9999 m
Phenomena:N/A
Clouds:Scattered 029 Hf
Scattered 050 Hf
Expected CloudBase > 1,600 ft AGL from Temp-Dew spread
CeilingNone
Temp08°C (ISA -5)
Dew Point04°C (76% RH)
AAT5.6°C
QNH1025 hPa
Density Alt210 ft
Elevation1,083 ft
Report Wrong Elevation
Raw Report
LFLC 170930Z AUTO VRB03KT 9999 SCT029 SCT050 08/04 Q1025 NOSIG=

Extra information for LFLC:More info

Metar Taf Metar & Taf Last 4 Metars F.Rules Stats Wind Profile Meteogram Temp Stats Airport Information Weather charts Add Link Nearby VenuesMetar ALERT Operation Metar Decoded Social comments